Time;durP1;ratioP1;P1;durP2;ratioP2;P2;SDS_P1;SDS_P2;PMS_P1;PMS_P2;Temp;Humidity;BMP_temperature;BMP_pressure;BME280_temperature;BME280_humidity;BME280_pressure;Samples;Min_cycle;Max_cycle;Signal;HPM_P1;HPM_P2
2022/12/01 00:01:52;;;;;;;11.38;6.32;;;7.80;99.90;;;;;;6005193;23;20089;-80
2022/12/01 02:29:16;;;;;;;13.00;6.95;;;;;;;;;;6205793;22;20019;-81
2022/12/01 02:32:31;;;;;;;10.30;6.65;;;7.30;99.90;;;;;;6237352;22;20075;-82
2022/12/01 05:02:43;;;;;;;23.88;11.05;;;;;;;;;;6234485;22;20009;-86
2022/12/01 05:05:13;;;;;;;20.55;10.77;;;;;;;;;;6198211;23;20036;-88
2022/12/01 05:07:39;;;;;;;21.37;10.33;;;;;;;;;;6198626;23;20008;-88
2022/12/01 05:10:07;;;;;;;20.50;10.68;;;;;;;;;;6199395;23;20038;-88
2022/12/01 05:12:33;;;;;;;19.63;9.40;;;;;;;;;;6193167;23;20096;-88
2022/12/01 05:15:01;;;;;;;20.95;10.43;;;;;;;;;;6193242;23;20013;-86
2022/12/01 05:17:30;;;;;;;20.63;10.02;;;;;;;;;;6170122;23;20033;-82
2022/12/01 05:22:41;;;;;;;21.58;10.65;;;;;;;;;;6193784;23;20040;-85
2022/12/01 05:25:07;;;;;;;22.30;10.52;;;;;;;;;;6193975;23;20083;-86
2022/12/01 05:27:33;;;;;;;21.10;10.88;;;;;;;;;;6193176;23;20011;-86
2022/12/01 05:29:59;;;;;;;21.33;10.50;;;;;;;;;;6193332;23;20005;-84
2022/12/01 05:32:25;;;;;;;19.50;10.00;;;;;;;;;;6193384;23;20015;-86
2022/12/01 05:34:51;;;;;;;21.98;9.93;;;;;;;;;;6194269;23;20429;-85
2022/12/01 05:37:17;;;;;;;21.20;9.75;;;;;;;;;;6190672;23;20009;-87
2022/12/01 05:39:43;;;;;;;21.02;10.57;;;;;;;;;;6192636;23;20009;-84
2022/12/01 05:42:09;;;;;;;20.63;9.73;;;;;;;;;;6191451;23;20032;-86
2022/12/01 05:44:35;;;;;;;18.75;9.65;;;;;;;;;;6192608;23;19997;-85
2022/12/01 05:47:01;;;;;;;21.60;10.82;;;;;;;;;;6191694;23;19997;-86
2022/12/01 05:49:27;;;;;;;24.80;10.40;;;;;;;;;;6195151;23;20068;-87
2022/12/01 05:51:53;;;;;;;19.25;9.65;;;;;;;;;;6193707;23;19993;-88
2022/12/01 05:54:19;;;;;;;22.58;10.70;;;;;;;;;;6194395;23;20125;-87
2022/12/01 05:56:46;;;;;;;22.27;11.35;;;;;;;;;;6195677;23;20011;-90
2022/12/01 05:59:12;;;;;;;18.27;9.65;;;;;;;;;;6192419;23;20429;-85
2022/12/01 06:01:38;;;;;;;23.27;10.55;;;;;;;;;;6193112;23;20068;-87
2022/12/01 06:04:07;;;;;;;26.73;10.95;;;;;;;;;;6196009;23;20009;-86
2022/12/01 06:06:33;;;;;;;22.42;11.63;;;;;;;;;;6195989;23;20501;-83
2022/12/01 06:08:59;;;;;;;23.10;11.55;;;;;;;;;;6194164;23;20009;-88
2022/12/01 06:11:25;;;;;;;23.20;10.95;;;;;;;;;;6197599;23;20009;-82
2022/12/01 06:13:51;;;;;;;20.55;10.55;;;;;;;;;;6172271;23;20024;-85
2022/12/01 06:16:23;;;;;;;22.30;10.40;;;;;;;;;;6203144;23;20013;-85
2022/12/01 06:18:54;;;;;;;24.35;9.88;;;;;;;;;;6207086;23;20017;-87
2022/12/01 06:21:20;;;;;;;24.27;11.40;;;;;;;;;;6171148;23;20013;-87
2022/12/01 06:23:49;;;;;;;27.13;11.30;;;;;;;;;;6193841;23;20094;-84
2022/12/01 06:26:18;;;;;;;22.20;11.02;;;;;;;;;;6197987;23;20002;-82
2022/12/01 06:28:44;;;;;;;25.45;11.55;;;;;;;;;;6192768;23;20005;-87
2022/12/01 06:31:10;;;;;;;20.90;10.63;;;;;;;;;;6196406;23;20013;-83
2022/12/01 06:33:39;;;;;;;25.25;11.52;;;;;;;;;;6196816;23;20013;-85
2022/12/01 06:36:13;;;;;;;20.23;10.40;;;;;;;;;;6193844;23;20017;-84
2022/12/01 06:38:39;;;;;;;22.15;11.02;;;;;;;;;;6195620;23;20016;-83
2022/12/01 06:41:05;;;;;;;27.90;12.48;;;;;;;;;;6199593;23;20009;-84
2022/12/01 06:43:31;;;;;;;25.85;12.00;;;;;;;;;;6196385;23;20029;-82
2022/12/01 06:45:58;;;;;;;26.27;10.77;;;;;;;;;;6198334;23;20005;-84
2022/12/01 06:48:24;;;;;;;22.23;10.18;;;;;;;;;;6203683;23;20049;-85
2022/12/01 06:50:50;;;;;;;22.20;11.43;;;;;;;;;;6203821;23;20009;-81
2022/12/01 06:53:16;;;;;;;27.50;11.68;;;;;;;;;;6204492;23;20001;-85
2022/12/01 06:55:42;;;;;;;24.48;11.52;;;;;;;;;;6177623;23;20072;-86
2022/12/01 06:58:08;;;;;;;24.92;11.18;;;;;;;;;;6208464;23;19981;-84
2022/12/01 07:00:34;;;;;;;23.02;10.82;;;;;;;;;;6205964;23;20016;-84
2022/12/01 07:03:00;;;;;;;44.45;22.98;;;;;;;;;;6199371;23;20005;-86
2022/12/01 07:05:26;;;;;;;27.33;11.00;;;;;;;;;;6197677;23;20020;-85
2022/12/01 07:07:53;;;;;;;24.42;11.75;;;;;;;;;;6197125;23;20425;-84
2022/12/01 07:10:19;;;;;;;25.25;11.10;;;;;;;;;;6194861;23;20008;-83
2022/12/01 07:12:46;;;;;;;26.05;11.05;;;;;;;;;;6197085;23;20081;-86
2022/12/01 07:15:12;;;;;;;24.33;11.40;;;;;;;;;;6196096;23;20005;-87
2022/12/01 07:17:39;;;;;;;23.77;10.77;;;;;;;;;;6198285;23;20001;-84
2022/12/01 07:20:06;;;;;;;23.30;10.63;;;;;;;;;;6199262;23;20033;-86
2022/12/01 07:22:32;;;;;;;25.95;12.68;;;;;;;;;;6197820;23;20005;-85
2022/12/01 07:24:58;;;;;;;31.85;12.48;;;;;;;;;;6201383;23;20044;-85
2022/12/01 07:27:24;;;;;;;28.80;12.57;;;;;;;;;;6195172;23;20384;-82
2022/12/01 07:29:50;;;;;;;25.60;11.68;;;;;;;;;;6200186;23;20012;-82
2022/12/01 07:32:16;;;;;;;23.90;11.88;;;;;;;;;;6197427;23;20068;-85
2022/12/01 07:34:42;;;;;;;29.55;12.25;;;;;;;;;;6195055;23;20295;-87
2022/12/01 07:37:08;;;;;;;23.77;11.32;;;;;;;;;;6194193;23;20080;-87
2022/12/01 07:39:35;;;;;;;27.10;11.73;;;;;;;;;;6195551;23;20005;-85
2022/12/01 07:42:01;;;;;;;26.50;12.38;;;;;;;;;;6193909;23;19998;-82
2022/12/01 07:44:30;;;;;;;22.80;10.55;;;;;;;;;;6194016;23;20005;-90
2022/12/01 07:46:56;;;;;;;20.90;9.88;;;;;;;;;;6192105;23;19998;-86
2022/12/01 07:49:22;;;;;;;25.80;11.35;;;;;;;;;;6190579;23;20002;-85
2022/12/01 07:51:48;;;;;;;23.70;11.75;;;;;;;;;;6192386;23;20029;-85
2022/12/01 07:54:15;;;;;;;15.70;9.05;;;;;;;;;;6194096;23;20009;-85
2022/12/01 07:56:42;;;;;;;19.38;10.45;;;;;;;;;;6199234;23;20008;-82
2022/12/01 07:59:08;;;;;;;14.57;8.27;;;;;;;;;;6198540;23;20056;-84
2022/12/01 08:01:34;;;;;;;12.70;7.28;;;;;;;;;;6191316;23;20013;-85
2022/12/01 08:04:00;;;;;;;10.52;6.15;;;;;;;;;;6194141;23;20044;-84
2022/12/01 08:06:28;;;;;;;13.13;6.43;;;;;;;;;;6197445;23;20480;-85
2022/12/01 08:08:54;;;;;;;10.95;6.20;;;;;;;;;;6195591;23;20004;-85
2022/12/01 08:11:21;;;;;;;12.43;7.05;;;;;;;;;;6198412;23;20051;-86
2022/12/01 08:13:53;;;;;;;12.18;7.03;;;;;;;;;;6168703;23;20029;-83
2022/12/01 08:16:21;;;;;;;13.43;7.78;;;;;;;;;;6169005;23;20371;-87
2022/12/01 08:18:47;;;;;;;12.93;7.43;;;;;;;;;;6167119;23;20009;-88
2022/12/01 08:21:15;;;;;;;16.08;7.38;;;;;;;;;;6195630;23;20013;-83
2022/12/01 08:23:41;;;;;;;15.43;7.80;;;;;;;;;;6195090;23;19997;-85
2022/12/01 08:26:09;;;;;;;14.23;8.45;;;;;;;;;;6195827;23;20099;-85
2022/12/01 08:28:35;;;;;;;13.60;7.95;;;;;;;;;;6197439;23;20001;-82
2022/12/01 08:31:15;;;;;;;12.27;7.05;;;;;;;;;;6194980;23;20001;-86
2022/12/01 08:33:45;;;;;;;14.60;8.67;;;;;;;;;;6194972;23;20031;-86
2022/12/01 08:36:11;;;;;;;14.35;8.23;;;;;;;;;;6197280;23;20009;-87
2022/12/01 08:38:37;;;;;;;14.30;8.90;;;;;;;;;;6197674;23;20021;-88
2022/12/01 08:41:05;;;;;;;15.13;8.25;;;;;;;;;;6195273;23;20056;-86
2022/12/01 08:43:31;;;;;;;14.07;7.72;;;;;;;;;;6195705;23;20013;-86
2022/12/01 08:45:58;;;;;;;14.40;8.38;;;;;;;;;;6197015;23;20028;-85
2022/12/01 08:48:24;;;;;;;13.90;7.72;;;;;;;;;;6198611;23;20005;-84
2022/12/01 08:50:52;;;;;;;16.00;8.20;;;;;;;;;;6195882;23;20441;-83
2022/12/01 08:53:18;;;;;;;12.27;7.55;;;;;;;;;;6171407;23;20029;-82
2022/12/01 08:55:44;;;;;;;13.00;7.30;;;;;;;;;;6196925;23;20005;-86
2022/12/01 08:58:10;;;;;;;16.42;8.32;;;;;;;;;;6196774;23;20005;-82
2022/12/01 09:00:39;;;;;;;15.82;7.43;;;;;;;;;;6196405;23;20375;-85
2022/12/01 09:03:05;;;;;;;13.23;7.30;;;;;;;;;;6198913;23;20079;-86
2022/12/01 09:05:31;;;;;;;12.25;7.15;;;;;;;;;;6202605;23;20001;-87
2022/12/01 09:10:54;;;;;;;15.00;8.10;;;;;;;;;;6198104;23;20036;-90
2022/12/01 09:13:20;;;;;;;15.48;8.15;;;;;;;;;;6197117;23;20017;-84
2022/12/01 09:15:54;;;;;;;15.88;8.68;;;;;;;;;;6194903;23;20088;-84
2022/12/01 09:18:20;;;;;;;15.10;8.18;;;;;;;;;;6196386;23;20023;-87
2022/12/01 09:20:46;;;;;;;15.70;8.60;;;;;;;;;;6196131;23;20012;-87
2022/12/01 09:23:12;;;;;;;14.77;7.35;;;;;;;;;;6195583;23;20008;-85
2022/12/01 09:25:38;;;;;;;16.17;8.43;;;;;;;;;;6195926;23;20001;-87
2022/12/01 09:28:05;;;;;;;14.88;8.50;;;;;;;;;;6198987;23;20053;-84
2022/12/01 09:30:31;;;;;;;15.95;9.52;;;;;;;;;;6199614;23;20345;-87
2022/12/01 09:32:57;;;;;;;17.88;8.85;;;;;;;;;;6195953;23;20009;-86
2022/12/01 09:35:23;;;;;;;16.42;8.23;;;;;;;;;;6198956;23;20015;-86
2022/12/01 09:37:49;;;;;;;16.20;8.50;;;;;;;;;;6199083;23;20005;-84
2022/12/01 09:40:16;;;;;;;17.13;9.40;;;;;;;;;;6197735;23;20012;-88
2022/12/01 09:42:44;;;;;;;19.02;9.00;;;;;;;;;;6197646;23;20005;-87
2022/12/01 09:45:30;;;;;;;15.30;9.23;;;;;;;;;;6201062;23;20443;-84
2022/12/01 09:48:00;;;;;;;16.33;8.95;;;;;;;;;;6199240;23;20068;-85
2022/12/01 09:50:28;;;;;;;17.88;9.40;;;;;;;;;;6199872;23;20056;-84
2022/12/01 09:52:58;;;;;;;14.05;7.90;;;;;;;;;;6198173;23;20063;-86
2022/12/01 09:55:25;;;;;;;16.10;9.10;;;;;;;;;;6198184;23;20029;-87
2022/12/01 09:57:52;;;;;;;16.48;9.10;;;;;;;;;;6197498;23;20016;-86
2022/12/01 10:00:18;;;;;;;19.00;10.52;;;;;;;;;;6196531;23;20065;-88
2022/12/01 10:03:22;;;;;;;16.77;9.25;;;6.50;99.90;;;;;;6196655;23;19997;-84
2022/12/01 10:05:49;;;;;;;20.13;9.82;;;;;;;;;;6199575;23;20012;-87
2022/12/01 10:08:17;;;;;;;16.83;8.77;;;;;;;;;;6200256;23;20007;-86
2022/12/01 10:10:45;;;;;;;21.10;11.40;;;;;;;;;;6198681;23;20077;-88
2022/12/01 10:13:19;;;;;;;19.73;10.10;;;;;;;;;;6198158;23;20341;-85
2022/12/01 10:15:56;;;;;;;20.80;10.60;;;;;;;;;;6205886;23;20016;-87
2022/12/01 10:18:41;;;;;;;19.00;9.38;;;;;;;;;;6209355;23;20064;-88
2022/12/01 10:21:42;;;;;;;21.08;10.07;;;;;;;;;;6208508;23;19993;-84
2022/12/01 10:24:08;;;;;;;20.30;9.63;;;;;;;;;;6091416;23;20010;-85
2022/12/01 10:29:54;;;;;;;21.08;11.05;;;;;;;;;;6210235;23;19996;-84
2022/12/01 10:32:26;;;;;;;17.33;9.15;;;;;;;;;;6209186;23;20001;-83
2022/12/01 10:35:34;;;;;;;21.05;11.73;;;;;;;;;;6204959;23;20036;-82
2022/12/01 10:38:38;;;;;;;20.38;10.20;;;;;;;;;;6213622;23;20020;-81
2022/12/01 10:41:13;;;;;;;18.92;10.07;;;;;;;;;;6207367;23;20012;-88
2022/12/01 10:43:40;;;;;;;23.23;12.18;;;;;;;;;;6204382;23;20008;-88
2022/12/01 10:46:23;;;;;;;23.90;12.57;;;;;;;;;;6205380;23;20001;-87
2022/12/01 10:49:14;;;;;;;23.05;11.60;;;;;;;;;;6207171;23;20001;-88
2022/12/01 10:51:54;;;;;;;22.95;12.05;;;;;;;;;;6179737;23;20005;-86
2022/12/01 10:54:21;;;;;;;22.05;11.50;;;;;;;;;;6202726;23;20036;-88
2022/12/01 10:57:08;;;;;;;24.08;11.48;;;;;;;;;;6205180;23;20028;-86
2022/12/01 10:59:37;;;;;;;21.92;10.75;;;;;;;;;;6205863;23;20005;-85
2022/12/01 11:02:04;;;;;;;20.58;11.38;;;;;;;;;;6206714;23;20036;-87
2022/12/01 11:04:34;;;;;;;22.15;10.80;;;;;;;;;;6206546;23;20009;-85
2022/12/01 11:07:00;;;;;;;25.25;10.75;;;;;;;;;;6204873;23;20059;-84
2022/12/01 11:09:27;;;;;;;25.27;11.27;;;;;;;;;;6209218;23;20032;-87
2022/12/01 11:11:56;;;;;;;19.17;10.77;;;;;;;;;;6207707;23;19993;-86
2022/12/01 11:14:24;;;;;;;21.30;10.27;;;;;;;;;;6206558;23;20009;-84
2022/12/01 11:16:52;;;;;;;22.40;11.40;;;;;;;;;;6179006;23;20024;-85
2022/12/01 11:19:31;;;;;;;;;;;6.80;99.90;;;;;;6206693;23;20005;-87
2022/12/01 11:21:58;;;;;;;21.17;10.85;;;;;;;;;;6178406;23;19947;-87
2022/12/01 11:24:44;;;;;;;22.10;10.65;;;;;;;;;;6204421;23;20072;-86
2022/12/01 11:27:21;;;;;;;19.75;10.48;;;;;;;;;;6179345;23;20052;-88
2022/12/01 11:29:57;;;;;;;17.30;9.98;;;;;;;;;;6206593;23;20009;-87
2022/12/01 11:32:27;;;;;;;20.45;10.88;;;6.70;99.90;;;;;;6206374;23;20061;-85
2022/12/01 11:35:22;;;;;;;20.23;10.47;;;;;;;;;;6181637;23;20021;-87
2022/12/01 11:37:51;;;;;;;23.65;11.38;;;;;;;;;;6212919;23;20208;-88
2022/12/01 11:40:31;;;;;;;21.80;11.10;;;;;;;;;;6204811;23;20092;-87
2022/12/01 11:43:02;;;;;;;23.17;11.30;;;;;;;;;;6204963;23;20429;-89
2022/12/01 11:45:38;;;;;;;21.67;11.18;;;;;;;;;;6206929;23;19997;-88
2022/12/01 11:48:07;;;;;;;21.08;10.85;;;;;;;;;;6208964;23;20409;-87
2022/12/01 11:50:41;;;;;;;21.52;10.75;;;;;;;;;;6206024;23;20005;-84
2022/12/01 11:53:33;;;;;;;20.83;10.27;;;;;;;;;;6208365;23;20044;-88
2022/12/01 11:56:27;;;;;;;20.42;10.07;;;;;;;;;;6182509;23;20012;-90
2022/12/01 11:59:00;;;;;;;18.38;8.85;;;;;;;;;;6208411;23;20020;-84
2022/12/01 12:02:10;;;;;;;18.42;9.40;;;6.70;99.90;;;;;;6204957;23;20048;-89
2022/12/01 12:04:36;;;;;;;23.23;10.50;;;;;;;;;;6181837;23;20012;-88
2022/12/01 12:07:46;;;;;;;21.73;10.98;;;6.60;99.90;;;;;;6207214;23;20005;-90
2022/12/01 12:10:20;;;;;;;18.92;10.38;;;;;;;;;;6204761;23;20005;-84
2022/12/01 12:13:12;;;;;;;18.60;9.90;;;;;;;;;;6194901;23;20092;-83
2022/12/01 12:15:58;;;;;;;18.38;9.48;;;;;;;;;;6167519;23;19997;-84
2022/12/01 12:18:33;;;;;;;21.10;11.18;;;;;;;;;;6174531;23;20001;-83
2022/12/01 12:21:03;;;;;;;17.13;10.10;;;;;;;;;;6197845;23;20017;-86
2022/12/01 12:23:55;;;;;;;19.67;9.90;;;;;;;;;;6198341;23;20059;-86
2022/12/01 12:26:26;;;;;;;19.40;10.23;;;;;;;;;;6198657;23;20373;-85
2022/12/01 12:28:58;;;;;;;22.98;10.57;;;;;;;;;;6199538;23;19997;-87
2022/12/01 12:31:33;;;;;;;19.15;8.40;;;;;;;;;;6199103;23;20001;-84
2022/12/01 12:34:24;;;;;;;19.40;10.52;;;;;;;;;;6199620;23;20063;-86
2022/12/01 12:37:12;;;;;;;18.13;9.50;;;;;;;;;;6202161;23;20269;-85
2022/12/01 12:39:38;;;;;;;22.85;11.10;;;;;;;;;;6200917;23;20012;-88
2022/12/01 12:42:09;;;;;;;18.58;9.57;;;;;;;;;;6200093;23;20052;-86
2022/12/01 12:44:56;;;;;;;20.30;9.63;;;;;;;;;;6200406;23;20024;-83
2022/12/01 12:48:05;;;;;;;18.80;9.95;;;;;;;;;;6206107;23;20001;-86
2022/12/01 12:50:50;;;;;;;19.98;10.02;;;;;;;;;;6203052;23;20009;-87
2022/12/01 12:53:28;;;;;;;20.13;10.15;;;;;;;;;;6203403;23;20015;-82
2022/12/01 12:55:58;;;;;;;20.02;10.45;;;;;;;;;;6201326;23;20017;-88
2022/12/01 12:58:40;;;;;;;20.50;10.63;;;;;;;;;;6201232;23;20009;-84
2022/12/01 13:01:11;;;;;;;20.17;10.80;;;;;;;;;;6201770;23;20036;-87
2022/12/01 13:04:03;;;;;;;20.10;9.98;;;;;;;;;;6198411;23;20009;-87
2022/12/01 13:06:34;;;;;;;18.83;10.20;;;;;;;;;;6173984;23;20540;-84
2022/12/01 13:09:40;;;;;;;24.90;10.68;;;6.60;99.90;;;;;;6197885;23;20341;-85
2022/12/01 13:12:07;;;;;;;21.85;10.35;;;;;;;;;;6192256;23;20001;-83
2022/12/01 13:14:40;;;;;;;21.27;11.88;;;;;;;;;;6200014;23;20064;-84
2022/12/01 13:17:18;;;;;;;20.40;10.68;;;;;;;;;;6197747;23;20009;-85
2022/12/01 13:19:45;;;;;;;23.13;11.60;;;;;;;;;;6199717;23;20005;-88
2022/12/01 13:22:12;;;;;;;23.25;12.00;;;;;;;;;;6201925;23;20081;-85
2022/12/01 13:24:40;;;;;;;23.38;11.40;;;;;;;;;;6204256;23;20127;-87
2022/12/01 13:27:20;;;;;;;26.98;13.20;;;;;;;;;;6203086;23;20011;-85
2022/12/01 13:30:06;;;;;;;23.90;11.65;;;;;;;;;;6202988;23;19997;-87
2022/12/01 13:32:32;;;;;;;22.38;10.93;;;;;;;;;;6176351;23;20033;-89
2022/12/01 13:34:59;;;;;;;23.58;11.10;;;;;;;;;;6205182;23;20001;-88
2022/12/01 13:37:27;;;;;;;21.52;10.88;;;;;;;;;;6179545;23;20005;-85
2022/12/01 19:39:53;;;;;;;23.75;11.63;;;;;;;;;;6162364;22;20020;-88
2022/12/01 19:42:19;;;;;;;25.13;11.77;;;;;;;;;;6203869;23;20072;-87
2022/12/01 19:44:49;;;;;;;24.02;11.80;;;;;;;;;;6236346;23;19985;-84
2022/12/01 19:47:15;;;;;;;29.67;13.38;;;;;;;;;;6238589;23;20064;-87
2022/12/01 19:49:42;;;;;;;23.00;12.27;;;;;;;;;;6236451;23;19993;-87
2022/12/01 19:52:08;;;;;;;21.17;11.35;;;;;;;;;;6212049;23;20013;-86
2022/12/01 19:54:36;;;;;;;22.58;10.98;;;;;;;;;;6238172;23;20045;-87
2022/12/01 19:57:02;;;;;;;26.33;13.38;;;;;;;;;;6234055;23;20021;-88
2022/12/01 19:59:28;;;;;;;25.02;12.98;;;;;;;;;;6208297;23;19996;-89
2022/12/01 20:01:54;;;;;;;31.23;14.00;;;;;;;;;;6205818;23;20028;-87
2022/12/01 20:04:23;;;;;;;31.77;13.93;;;;;;;;;;6210924;23;20024;-90
2022/12/01 20:06:49;;;;;;;27.20;14.15;;;;;;;;;;6237475;23;20080;-89
2022/12/01 20:09:15;;;;;;;29.90;13.32;;;;;;;;;;6207802;23;20012;-88
2022/12/01 20:11:41;;;;;;;28.58;14.68;;;;;;;;;;6232157;23;20060;-90
2022/12/01 20:14:08;;;;;;;31.85;14.63;;;;;;;;;;6233977;23;20031;-89
2022/12/01 20:16:35;;;;;;;33.97;16.00;;;;;;;;;;6236137;23;20008;-87
2022/12/01 20:19:01;;;;;;;31.60;15.07;;;;;;;;;;6232397;23;20008;-88
2022/12/01 20:21:29;;;;;;;33.17;15.55;;;;;;;;;;6206577;23;20426;-87
2022/12/01 20:23:56;;;;;;;33.30;16.10;;;;;;;;;;6206632;23;19996;-88
2022/12/01 20:26:24;;;;;;;33.42;15.32;;;;;;;;;;6207768;23;20026;-88
2022/12/01 20:28:50;;;;;;;29.20;14.77;;;;;;;;;;6209465;23;20007;-85
2022/12/01 20:31:18;;;;;;;26.17;12.73;;;;;;;;;;6205175;23;20009;-86
2022/12/01 20:33:45;;;;;;;26.65;13.65;;;;;;;;;;6234538;23;20016;-88
2022/12/01 20:36:11;;;;;;;30.70;14.02;;;;;;;;;;6235792;23;20009;-88
2022/12/01 20:38:37;;;;;;;25.23;13.00;;;;;;;;;;6209535;23;20020;-90
2022/12/01 20:41:04;;;;;;;26.20;13.68;;;;;;;;;;6207622;23;20012;-87
2022/12/01 20:43:31;;;;;;;31.50;14.25;;;;;;;;;;6234820;23;20129;-89
2022/12/01 20:45:57;;;;;;;28.65;13.30;;;;;;;;;;6235550;23;20000;-87
2022/12/01 20:48:23;;;;;;;28.40;13.50;;;;;;;;;;6206659;23;20005;-88
2022/12/01 20:50:49;;;;;;;27.52;13.90;;;;;;;;;;6233431;23;20091;-86
2022/12/01 20:53:15;;;;;;;30.45;14.23;;;;;;;;;;6206293;23;20019;-87
2022/12/01 20:55:41;;;;;;;41.20;20.30;;;;;;;;;;6203227;23;20013;-84
2022/12/01 20:58:07;;;;;;;29.67;14.75;;;;;;;;;;6201845;23;20016;-88
2022/12/01 21:00:34;;;;;;;33.17;13.98;;;;;;;;;;6205768;23;20016;-86
2022/12/01 21:03:00;;;;;;;28.00;13.77;;;;;;;;;;6230981;23;20023;-87
2022/12/01 21:05:26;;;;;;;27.73;14.13;;;;;;;;;;6232644;23;20020;-83
2022/12/01 21:07:53;;;;;;;31.95;14.30;;;;;;;;;;6228990;23;20107;-84
2022/12/01 21:10:19;;;;;;;31.23;13.80;;;;;;;;;;6227199;23;20004;-86
2022/12/01 21:15:36;;;;;;;28.85;15.18;;;;;;;;;;6229521;23;20035;-85
2022/12/01 21:18:13;;;;;;;31.48;15.23;;;5.20;99.90;;;;;;6207032;23;20007;-84
2022/12/01 21:20:43;;;;;;;30.17;13.75;;;;;;;;;;6203549;23;20070;-84
2022/12/01 21:23:10;;;;;;;33.87;15.30;;;;;;;;;;6207099;23;20253;-83
2022/12/01 21:25:37;;;;;;;35.42;16.27;;;;;;;;;;6233068;23;19985;-85
2022/12/01 21:28:10;;;;;;;35.83;15.75;;;;;;;;;;6209634;23;19989;-88
2022/12/01 21:30:36;;;;;;;34.00;15.50;;;;;;;;;;6235115;23;20027;-88
2022/12/01 21:33:15;;;;;;;33.33;15.25;;;;;;;;;;6233592;23;20001;-86
2022/12/01 21:35:41;;;;;;;33.42;16.05;;;;;;;;;;6209721;23;20009;-87
2022/12/01 21:38:10;;;;;;;33.95;15.18;;;;;;;;;;6206763;23;20035;-84
2022/12/01 21:40:37;;;;;;;34.45;15.55;;;;;;;;;;6226211;23;20005;-85
2022/12/01 21:43:12;;;;;;;32.45;15.82;;;;;;;;;;6231281;23;19992;-88
2022/12/01 21:45:38;;;;;;;36.35;15.70;;;;;;;;;;6204430;23;20031;-89
2022/12/01 21:48:14;;;;;;;36.50;16.08;;;;;;;;;;6208524;23;20064;-89
2022/12/01 21:50:40;;;;;;;35.08;16.25;;;;;;;;;;6205693;23;20004;-87
2022/12/01 21:53:26;;;;;;;37.88;15.85;;;;;;;;;;6205033;23;20452;-86
2022/12/01 21:55:52;;;;;;;31.58;15.40;;;;;;;;;;6232437;23;20032;-86
2022/12/01 21:58:38;;;;;;;37.67;16.40;;;5.30;99.90;;;;;;6206624;23;20056;-86
2022/12/01 22:01:14;;;;;;;35.00;16.63;;;;;;;;;;6229214;23;20043;-84
2022/12/01 22:03:43;;;;;;;31.92;14.40;;;5.30;99.90;;;;;;6207930;23;20074;-88
2022/12/01 22:06:15;;;;;;;35.00;16.42;;;;;;;;;;6232718;23;20003;-85
2022/12/01 22:08:44;;;;;;;34.03;15.25;;;;;;;;;;6206200;23;20004;-87
2022/12/01 22:11:10;;;;;;;33.30;14.88;;;;;;;;;;6231717;23;20085;-87
2022/12/01 22:13:38;;;;;;;32.70;16.23;;;;;;;;;;6228696;23;20005;-85
2022/12/01 22:16:09;;;;;;;33.90;15.82;;;;;;;;;;6205821;23;20000;-86
2022/12/01 22:18:36;;;;;;;32.92;16.00;;;;;;;;;;6227037;23;20013;-88
2022/12/01 22:21:20;;;;;;;34.47;16.60;;;;;;;;;;6199879;23;20032;-92
2022/12/01 22:23:47;;;;;;;34.40;16.40;;;;;;;;;;6228473;23;20000;-88
2022/12/01 22:26:19;;;;;;;32.15;15.93;;;;;;;;;;6201329;23;20012;-86
2022/12/01 22:28:45;;;;;;;35.60;15.27;;;;;;;;;;6228614;23;20000;-88
2022/12/01 22:31:14;;;;;;;34.70;15.95;;;;;;;;;;6227954;23;20005;-86
2022/12/01 22:33:40;;;;;;;28.75;14.35;;;;;;;;;;6204846;23;20028;-84
2022/12/01 22:36:15;;;;;;;36.50;16.15;;;;;;;;;;6205996;23;20017;-85
2022/12/01 22:38:45;;;;;;;31.40;15.60;;;;;;;;;;6236763;23;20020;-89
2022/12/01 22:41:15;;;;;;;33.08;14.45;;;;;;;;;;6209449;23;20027;-87
2022/12/01 22:43:41;;;;;;;33.72;14.48;;;;;;;;;;6207097;23;20019;-86
2022/12/01 22:46:29;;;;;;;26.98;14.00;;;;;;;;;;6206412;23;20012;-86
2022/12/01 22:48:56;;;;;;;26.15;12.90;;;;;;;;;;6203732;23;20027;-87
2022/12/01 22:51:23;;;;;;;29.52;13.57;;;;;;;;;;6204963;23;20009;-86
2022/12/01 22:53:52;;;;;;;30.67;13.63;;;;;;;;;;6231735;23;20013;-86
2022/12/01 22:56:41;;;;;;;39.97;20.33;;;;;;;;;;6206078;23;20064;-87
2022/12/01 22:59:14;;;;;;;29.83;14.85;;;;;;;;;;6233910;23;20406;-83
2022/12/01 23:01:47;;;;;;;27.50;12.90;;;;;;;;;;6206100;23;20008;-86
2022/12/01 23:04:25;;;;;;;23.25;11.82;;;;;;;;;;6207347;23;20000;-83
2022/12/01 23:06:52;;;;;;;25.55;12.25;;;;;;;;;;6231293;23;20015;-85
2022/12/01 23:09:18;;;;;;;24.13;12.13;;;;;;;;;;6207327;23;20010;-84
2022/12/01 23:11:48;;;;;;;23.27;10.93;;;;;;;;;;6232450;23;20008;-85
2022/12/01 23:14:16;;;;;;;25.63;11.80;;;;;;;;;;6205674;23;20441;-85
2022/12/01 23:16:42;;;;;;;20.75;11.07;;;;;;;;;;6231325;23;20036;-88
2022/12/01 23:19:08;;;;;;;25.65;12.02;;;;;;;;;;6213860;23;20008;-88
2022/12/01 23:21:34;;;;;;;24.20;11.65;;;;;;;;;;6215117;23;20004;-88
2022/12/01 23:24:04;;;;;;;23.35;11.52;;;;;;;;;;6240949;23;20013;-90
2022/12/01 23:26:30;;;;;;;23.02;11.38;;;;;;;;;;6241418;23;19988;-88
2022/12/01 23:28:57;;;;;;;20.00;10.45;;;;;;;;;;6240209;23;20001;-89
2022/12/01 23:31:23;;;;;;;19.95;10.30;;;;;;;;;;6241396;23;19993;-88
2022/12/01 23:39:10;;;;;;;21.40;10.35;;;;;;;;;;6198853;22;20024;-82
2022/12/01 23:59:39;;;;;;;22.13;10.32;;;;;;;;;;6217708;23;20020;-82
